sensor_id;sensor_type;location;lat;lon;timestamp;P1;durP1;ratioP1;P2;durP2;ratioP2
1178;SDS011;578;48.408;10.004;2022-08-02T00:02:02;10.27;;;8.37;;
1178;SDS011;578;48.408;10.004;2022-08-02T00:04:29;15.20;;;8.70;;
1178;SDS011;578;48.408;10.004;2022-08-02T00:06:55;9.57;;;8.67;;
1178;SDS011;578;48.408;10.004;2022-08-02T00:09:23;11.50;;;9.67;;
1178;SDS011;578;48.408;10.004;2022-08-02T00:11:50;10.70;;;9.20;;
1178;SDS011;578;48.408;10.004;2022-08-02T00:14:17;10.63;;;9.00;;
1178;SDS011;578;48.408;10.004;2022-08-02T00:16:44;11.87;;;9.50;;
1178;SDS011;578;48.408;10.004;2022-08-02T00:19:10;14.50;;;9.70;;
1178;SDS011;578;48.408;10.004;2022-08-02T00:21:37;11.10;;;8.90;;
1178;SDS011;578;48.408;10.004;2022-08-02T00:24:04;9.83;;;8.83;;
1178;SDS011;578;48.408;10.004;2022-08-02T00:26:32;11.17;;;7.20;;
1178;SDS011;578;48.408;10.004;2022-08-02T00:28:59;10.77;;;6.93;;
1178;SDS011;578;48.408;10.004;2022-08-02T00:31:26;9.53;;;7.47;;
1178;SDS011;578;48.408;10.004;2022-08-02T00:33:52;7.50;;;6.63;;
1178;SDS011;578;48.408;10.004;2022-08-02T00:36:19;6.00;;;5.47;;
1178;SDS011;578;48.408;10.004;2022-08-02T00:38:46;7.20;;;6.30;;
1178;SDS011;578;48.408;10.004;2022-08-02T00:41:14;7.40;;;5.73;;
1178;SDS011;578;48.408;10.004;2022-08-02T00:43:43;7.83;;;6.40;;
1178;SDS011;578;48.408;10.004;2022-08-02T00:46:10;11.13;;;6.13;;
1178;SDS011;578;48.408;10.004;2022-08-02T00:48:37;7.40;;;5.87;;
1178;SDS011;578;48.408;10.004;2022-08-02T00:51:03;6.13;;;5.53;;
1178;SDS011;578;48.408;10.004;2022-08-02T00:53:30;6.80;;;5.17;;
1178;SDS011;578;48.408;10.004;2022-08-02T00:55:57;6.50;;;5.47;;
1178;SDS011;578;48.408;10.004;2022-08-02T00:58:25;7.10;;;5.93;;
1178;SDS011;578;48.408;10.004;2022-08-02T01:00:53;8.23;;;6.57;;
1178;SDS011;578;48.408;10.004;2022-08-02T01:03:21;8.00;;;5.20;;
1178;SDS011;578;48.408;10.004;2022-08-02T01:05:48;6.37;;;5.40;;
1178;SDS011;578;48.408;10.004;2022-08-02T01:08:15;9.60;;;6.30;;
1178;SDS011;578;48.408;10.004;2022-08-02T01:10:42;6.67;;;5.97;;
1178;SDS011;578;48.408;10.004;2022-08-02T01:13:09;6.30;;;5.67;;
1178;SDS011;578;48.408;10.004;2022-08-02T01:15:37;8.20;;;7.37;;
1178;SDS011;578;48.408;10.004;2022-08-02T01:18:15;9.43;;;6.63;;
1178;SDS011;578;48.408;10.004;2022-08-02T01:21:00;11.90;;;6.60;;
1178;SDS011;578;48.408;10.004;2022-08-02T01:23:43;6.97;;;6.30;;
1178;SDS011;578;48.408;10.004;2022-08-02T01:26:28;10.47;;;7.27;;
1178;SDS011;578;48.408;10.004;2022-08-02T01:29:05;11.30;;;7.27;;
1178;SDS011;578;48.408;10.004;2022-08-02T01:31:37;13.87;;;8.97;;
1178;SDS011;578;48.408;10.004;2022-08-02T01:34:11;13.27;;;9.00;;
1178;SDS011;578;48.408;10.004;2022-08-02T01:36:44;12.97;;;10.37;;
1178;SDS011;578;48.408;10.004;2022-08-02T01:39:16;11.37;;;10.17;;
1178;SDS011;578;48.408;10.004;2022-08-02T01:41:45;13.10;;;9.60;;
1178;SDS011;578;48.408;10.004;2022-08-02T01:44:15;20.57;;;12.03;;
1178;SDS011;578;48.408;10.004;2022-08-02T01:46:43;17.10;;;12.23;;
1178;SDS011;578;48.408;10.004;2022-08-02T01:49:14;17.43;;;14.33;;
1178;SDS011;578;48.408;10.004;2022-08-02T01:51:43;20.87;;;15.30;;
1178;SDS011;578;48.408;10.004;2022-08-02T01:54:29;18.90;;;15.07;;
1178;SDS011;578;48.408;10.004;2022-08-02T01:56:59;23.40;;;15.90;;
1178;SDS011;578;48.408;10.004;2022-08-02T01:59:30;22.37;;;16.50;;
1178;SDS011;578;48.408;10.004;2022-08-02T02:01:58;24.93;;;16.90;;
1178;SDS011;578;48.408;10.004;2022-08-02T02:04:27;27.90;;;15.87;;
1178;SDS011;578;48.408;10.004;2022-08-02T02:06:55;28.77;;;20.00;;
1178;SDS011;578;48.408;10.004;2022-08-02T02:09:23;31.13;;;19.33;;
1178;SDS011;578;48.408;10.004;2022-08-02T02:11:53;31.70;;;20.60;;
1178;SDS011;578;48.408;10.004;2022-08-02T02:14:23;33.70;;;22.17;;
1178;SDS011;578;48.408;10.004;2022-08-02T02:16:52;31.90;;;21.30;;
1178;SDS011;578;48.408;10.004;2022-08-02T02:19:20;30.87;;;21.47;;
1178;SDS011;578;48.408;10.004;2022-08-02T02:21:48;37.90;;;22.70;;
1178;SDS011;578;48.408;10.004;2022-08-02T02:24:15;39.77;;;21.50;;
1178;SDS011;578;48.408;10.004;2022-08-02T02:26:42;36.07;;;23.00;;
1178;SDS011;578;48.408;10.004;2022-08-02T02:29:11;25.83;;;19.57;;
1178;SDS011;578;48.408;10.004;2022-08-02T02:31:39;31.13;;;20.63;;
1178;SDS011;578;48.408;10.004;2022-08-02T02:34:12;32.40;;;19.53;;
1178;SDS011;578;48.408;10.004;2022-08-02T02:36:44;37.13;;;21.37;;
1178;SDS011;578;48.408;10.004;2022-08-02T02:39:13;35.70;;;21.83;;
1178;SDS011;578;48.408;10.004;2022-08-02T02:41:42;37.33;;;21.00;;
1178;SDS011;578;48.408;10.004;2022-08-02T02:44:12;32.07;;;20.67;;
1178;SDS011;578;48.408;10.004;2022-08-02T02:46:42;31.20;;;20.43;;
1178;SDS011;578;48.408;10.004;2022-08-02T02:49:11;31.13;;;20.30;;
1178;SDS011;578;48.408;10.004;2022-08-02T02:51:40;31.10;;;21.70;;
1178;SDS011;578;48.408;10.004;2022-08-02T02:54:07;34.97;;;23.20;;
1178;SDS011;578;48.408;10.004;2022-08-02T02:56:36;35.57;;;23.23;;
1178;SDS011;578;48.408;10.004;2022-08-02T02:59:04;33.70;;;22.23;;
1178;SDS011;578;48.408;10.004;2022-08-02T03:01:32;36.00;;;22.87;;
1178;SDS011;578;48.408;10.004;2022-08-02T03:04:00;27.93;;;20.17;;
1178;SDS011;578;48.408;10.004;2022-08-02T03:06:31;36.37;;;22.80;;
1178;SDS011;578;48.408;10.004;2022-08-02T03:08:59;41.77;;;26.43;;
1178;SDS011;578;48.408;10.004;2022-08-02T03:11:25;39.87;;;27.00;;
1178;SDS011;578;48.408;10.004;2022-08-02T03:13:54;40.90;;;25.83;;
1178;SDS011;578;48.408;10.004;2022-08-02T03:16:22;40.10;;;26.83;;
1178;SDS011;578;48.408;10.004;2022-08-02T03:18:49;50.73;;;28.27;;
1178;SDS011;578;48.408;10.004;2022-08-02T03:21:16;46.70;;;29.17;;
1178;SDS011;578;48.408;10.004;2022-08-02T03:23:45;49.73;;;28.20;;
1178;SDS011;578;48.408;10.004;2022-08-02T03:26:12;55.73;;;31.50;;
1178;SDS011;578;48.408;10.004;2022-08-02T03:28:39;55.27;;;28.80;;
1178;SDS011;578;48.408;10.004;2022-08-02T03:31:07;50.87;;;29.90;;
1178;SDS011;578;48.408;10.004;2022-08-02T03:33:34;54.27;;;29.60;;
1178;SDS011;578;48.408;10.004;2022-08-02T03:36:03;44.13;;;29.43;;
1178;SDS011;578;48.408;10.004;2022-08-02T03:38:33;47.50;;;29.27;;
1178;SDS011;578;48.408;10.004;2022-08-02T03:41:03;53.37;;;30.90;;
1178;SDS011;578;48.408;10.004;2022-08-02T03:43:31;51.07;;;30.40;;
1178;SDS011;578;48.408;10.004;2022-08-02T03:45:58;51.57;;;26.80;;
1178;SDS011;578;48.408;10.004;2022-08-02T03:48:26;51.83;;;31.37;;
1178;SDS011;578;48.408;10.004;2022-08-02T03:50:54;49.73;;;28.37;;
1178;SDS011;578;48.408;10.004;2022-08-02T03:53:21;49.53;;;29.10;;
1178;SDS011;578;48.408;10.004;2022-08-02T03:55:49;57.70;;;28.70;;
1178;SDS011;578;48.408;10.004;2022-08-02T03:58:18;50.47;;;28.53;;
1178;SDS011;578;48.408;10.004;2022-08-02T04:00:45;57.33;;;31.70;;
1178;SDS011;578;48.408;10.004;2022-08-02T04:03:12;60.00;;;31.33;;
1178;SDS011;578;48.408;10.004;2022-08-02T04:05:39;79.27;;;34.47;;
1178;SDS011;578;48.408;10.004;2022-08-02T04:08:06;77.53;;;32.70;;
1178;SDS011;578;48.408;10.004;2022-08-02T04:10:33;68.47;;;32.90;;
1178;SDS011;578;48.408;10.004;2022-08-02T04:13:22;74.70;;;32.70;;
1178;SDS011;578;48.408;10.004;2022-08-02T04:15:53;58.97;;;32.73;;
1178;SDS011;578;48.408;10.004;2022-08-02T04:18:25;73.67;;;33.60;;
1178;SDS011;578;48.408;10.004;2022-08-02T04:20:55;66.73;;;32.43;;
1178;SDS011;578;48.408;10.004;2022-08-02T04:23:24;63.33;;;32.00;;
1178;SDS011;578;48.408;10.004;2022-08-02T04:25:51;50.23;;;29.60;;
1178;SDS011;578;48.408;10.004;2022-08-02T04:28:19;47.90;;;29.13;;
1178;SDS011;578;48.408;10.004;2022-08-02T04:30:48;46.93;;;28.07;;
1178;SDS011;578;48.408;10.004;2022-08-02T04:33:15;41.67;;;26.67;;
1178;SDS011;578;48.408;10.004;2022-08-02T04:35:43;35.27;;;23.57;;
1178;SDS011;578;48.408;10.004;2022-08-02T04:38:11;33.57;;;24.33;;
1178;SDS011;578;48.408;10.004;2022-08-02T04:40:38;36.50;;;24.57;;
1178;SDS011;578;48.408;10.004;2022-08-02T04:43:05;32.57;;;21.77;;
1178;SDS011;578;48.408;10.004;2022-08-02T04:45:33;38.83;;;25.63;;
1178;SDS011;578;48.408;10.004;2022-08-02T04:48:01;35.23;;;23.73;;
1178;SDS011;578;48.408;10.004;2022-08-02T04:50:28;32.80;;;23.67;;
1178;SDS011;578;48.408;10.004;2022-08-02T04:52:54;31.13;;;21.80;;
1178;SDS011;578;48.408;10.004;2022-08-02T04:55:21;33.20;;;22.40;;
1178;SDS011;578;48.408;10.004;2022-08-02T04:57:52;38.17;;;25.50;;
1178;SDS011;578;48.408;10.004;2022-08-02T05:00:22;44.63;;;27.17;;
1178;SDS011;578;48.408;10.004;2022-08-02T05:02:51;42.23;;;27.13;;
1178;SDS011;578;48.408;10.004;2022-08-02T05:05:18;33.50;;;24.97;;
1178;SDS011;578;48.408;10.004;2022-08-02T05:07:45;39.53;;;28.17;;
1178;SDS011;578;48.408;10.004;2022-08-02T05:10:12;40.53;;;27.87;;
1178;SDS011;578;48.408;10.004;2022-08-02T05:12:39;35.57;;;26.90;;
1178;SDS011;578;48.408;10.004;2022-08-02T05:15:06;30.53;;;25.40;;
1178;SDS011;578;48.408;10.004;2022-08-02T05:17:34;31.73;;;26.37;;
1178;SDS011;578;48.408;10.004;2022-08-02T05:20:02;35.70;;;26.77;;
1178;SDS011;578;48.408;10.004;2022-08-02T05:22:30;28.90;;;24.70;;
1178;SDS011;578;48.408;10.004;2022-08-02T05:24:56;28.70;;;24.13;;
1178;SDS011;578;48.408;10.004;2022-08-02T05:27:23;33.07;;;25.70;;
1178;SDS011;578;48.408;10.004;2022-08-02T05:29:50;28.17;;;24.63;;
1178;SDS011;578;48.408;10.004;2022-08-02T05:32:18;34.50;;;26.43;;
1178;SDS011;578;48.408;10.004;2022-08-02T05:34:45;33.77;;;27.23;;
1178;SDS011;578;48.408;10.004;2022-08-02T05:37:13;28.63;;;25.10;;
1178;SDS011;578;48.408;10.004;2022-08-02T05:39:39;30.27;;;24.67;;
1178;SDS011;578;48.408;10.004;2022-08-02T05:42:06;27.37;;;24.50;;
1178;SDS011;578;48.408;10.004;2022-08-02T05:44:33;23.87;;;21.27;;
1178;SDS011;578;48.408;10.004;2022-08-02T05:47:00;23.57;;;21.17;;
1178;SDS011;578;48.408;10.004;2022-08-02T05:49:26;21.53;;;19.27;;
1178;SDS011;578;48.408;10.004;2022-08-02T05:51:54;19.97;;;18.00;;
1178;SDS011;578;48.408;10.004;2022-08-02T05:54:34;18.93;;;17.13;;
1178;SDS011;578;48.408;10.004;2022-08-02T05:57:07;16.37;;;14.80;;
1178;SDS011;578;48.408;10.004;2022-08-02T05:59:44;15.20;;;13.90;;
1178;SDS011;578;48.408;10.004;2022-08-02T06:02:19;13.57;;;12.37;;
1178;SDS011;578;48.408;10.004;2022-08-02T06:04:55;13.97;;;12.57;;
1178;SDS011;578;48.408;10.004;2022-08-02T06:07:28;14.13;;;12.83;;
1178;SDS011;578;48.408;10.004;2022-08-02T06:09:57;12.33;;;11.13;;
1178;SDS011;578;48.408;10.004;2022-08-02T06:12:24;14.13;;;12.70;;
1178;SDS011;578;48.408;10.004;2022-08-02T06:14:56;13.57;;;12.17;;
1178;SDS011;578;48.408;10.004;2022-08-02T06:17:25;11.57;;;10.60;;
1178;SDS011;578;48.408;10.004;2022-08-02T06:19:52;11.43;;;10.53;;
1178;SDS011;578;48.408;10.004;2022-08-02T06:22:22;10.20;;;9.40;;
1178;SDS011;578;48.408;10.004;2022-08-02T06:24:51;10.03;;;9.23;;
1178;SDS011;578;48.408;10.004;2022-08-02T06:27:21;9.67;;;8.67;;
1178;SDS011;578;48.408;10.004;2022-08-02T06:29:52;8.10;;;7.37;;
1178;SDS011;578;48.408;10.004;2022-08-02T06:32:20;9.80;;;9.00;;
1178;SDS011;578;48.408;10.004;2022-08-02T06:34:47;11.03;;;10.10;;
1178;SDS011;578;48.408;10.004;2022-08-02T06:37:16;12.07;;;10.20;;
1178;SDS011;578;48.408;10.004;2022-08-02T06:39:53;12.67;;;11.67;;
1178;SDS011;578;48.408;10.004;2022-08-02T06:42:29;11.70;;;10.60;;
1178;SDS011;578;48.408;10.004;2022-08-02T06:45:02;12.87;;;11.57;;
1178;SDS011;578;48.408;10.004;2022-08-02T06:47:30;13.17;;;11.60;;
1178;SDS011;578;48.408;10.004;2022-08-02T06:49:56;10.70;;;9.90;;
1178;SDS011;578;48.408;10.004;2022-08-02T06:52:23;10.63;;;9.63;;
1178;SDS011;578;48.408;10.004;2022-08-02T06:54:51;10.30;;;8.87;;
1178;SDS011;578;48.408;10.004;2022-08-02T06:57:18;10.27;;;9.20;;
1178;SDS011;578;48.408;10.004;2022-08-02T06:59:46;9.33;;;8.43;;
1178;SDS011;578;48.408;10.004;2022-08-02T07:02:12;10.30;;;8.47;;
1178;SDS011;578;48.408;10.004;2022-08-02T07:04:39;9.30;;;7.87;;
1178;SDS011;578;48.408;10.004;2022-08-02T07:07:06;8.57;;;7.77;;
1178;SDS011;578;48.408;10.004;2022-08-02T07:09:32;7.97;;;7.37;;
1178;SDS011;578;48.408;10.004;2022-08-02T07:11:59;9.43;;;8.53;;
1178;SDS011;578;48.408;10.004;2022-08-02T07:14:26;9.33;;;8.30;;
1178;SDS011;578;48.408;10.004;2022-08-02T07:16:54;7.93;;;7.20;;
1178;SDS011;578;48.408;10.004;2022-08-02T07:19:20;7.70;;;7.10;;
1178;SDS011;578;48.408;10.004;2022-08-02T07:21:47;8.17;;;7.47;;
1178;SDS011;578;48.408;10.004;2022-08-02T07:24:14;8.20;;;7.57;;
1178;SDS011;578;48.408;10.004;2022-08-02T07:26:40;8.83;;;7.67;;
1178;SDS011;578;48.408;10.004;2022-08-02T07:29:07;8.60;;;7.80;;
1178;SDS011;578;48.408;10.004;2022-08-02T07:31:34;7.90;;;7.30;;
1178;SDS011;578;48.408;10.004;2022-08-02T07:34:02;7.93;;;7.33;;
1178;SDS011;578;48.408;10.004;2022-08-02T07:36:29;8.17;;;7.33;;
1178;SDS011;578;48.408;10.004;2022-08-02T07:38:56;7.60;;;6.80;;
1178;SDS011;578;48.408;10.004;2022-08-02T07:41:22;7.97;;;7.30;;
1178;SDS011;578;48.408;10.004;2022-08-02T07:43:49;7.40;;;6.80;;
1178;SDS011;578;48.408;10.004;2022-08-02T07:46:16;6.63;;;6.13;;
1178;SDS011;578;48.408;10.004;2022-08-02T07:48:43;6.40;;;5.90;;
1178;SDS011;578;48.408;10.004;2022-08-02T07:51:13;7.77;;;6.83;;
1178;SDS011;578;48.408;10.004;2022-08-02T07:53:39;7.07;;;6.47;;
1178;SDS011;578;48.408;10.004;2022-08-02T07:56:06;6.90;;;6.30;;
1178;SDS011;578;48.408;10.004;2022-08-02T07:58:33;7.80;;;6.23;;
1178;SDS011;578;48.408;10.004;2022-08-02T08:01:00;9.40;;;5.47;;
1178;SDS011;578;48.408;10.004;2022-08-02T08:03:26;6.30;;;5.80;;
1178;SDS011;578;48.408;10.004;2022-08-02T08:05:53;5.40;;;4.90;;
1178;SDS011;578;48.408;10.004;2022-08-02T08:08:21;5.73;;;5.23;;
1178;SDS011;578;48.408;10.004;2022-08-02T08:10:48;7.50;;;5.83;;
1178;SDS011;578;48.408;10.004;2022-08-02T08:13:15;5.83;;;5.33;;
1178;SDS011;578;48.408;10.004;2022-08-02T08:15:42;9.10;;;5.00;;
1178;SDS011;578;48.408;10.004;2022-08-02T08:18:09;5.50;;;5.00;;
1178;SDS011;578;48.408;10.004;2022-08-02T08:20:36;5.07;;;4.57;;
1178;SDS011;578;48.408;10.004;2022-08-02T08:23:03;4.87;;;4.53;;
1178;SDS011;578;48.408;10.004;2022-08-02T08:25:31;5.67;;;5.17;;
1178;SDS011;578;48.408;10.004;2022-08-02T08:27:57;7.10;;;5.47;;
1178;SDS011;578;48.408;10.004;2022-08-02T08:30:24;5.70;;;4.43;;
1178;SDS011;578;48.408;10.004;2022-08-02T08:32:51;4.70;;;4.23;;
1178;SDS011;578;48.408;10.004;2022-08-02T08:35:18;4.93;;;4.43;;
1178;SDS011;578;48.408;10.004;2022-08-02T08:37:45;5.70;;;4.93;;
1178;SDS011;578;48.408;10.004;2022-08-02T08:40:11;9.63;;;4.20;;
1178;SDS011;578;48.408;10.004;2022-08-02T08:42:40;5.57;;;4.10;;
1178;SDS011;578;48.408;10.004;2022-08-02T08:45:07;4.77;;;4.27;;
1178;SDS011;578;48.408;10.004;2022-08-02T08:47:35;5.20;;;4.13;;
1178;SDS011;578;48.408;10.004;2022-08-02T08:50:03;6.53;;;4.53;;
1178;SDS011;578;48.408;10.004;2022-08-02T08:52:32;6.53;;;4.00;;
1178;SDS011;578;48.408;10.004;2022-08-02T08:55:02;4.50;;;4.10;;
1178;SDS011;578;48.408;10.004;2022-08-02T08:57:30;5.70;;;3.70;;
1178;SDS011;578;48.408;10.004;2022-08-02T09:00:01;7.60;;;4.53;;
1178;SDS011;578;48.408;10.004;2022-08-02T09:02:28;3.43;;;3.13;;
1178;SDS011;578;48.408;10.004;2022-08-02T09:04:59;4.60;;;4.20;;
1178;SDS011;578;48.408;10.004;2022-08-02T09:07:26;4.97;;;4.30;;
1178;SDS011;578;48.408;10.004;2022-08-02T09:09:52;4.57;;;4.13;;
1178;SDS011;578;48.408;10.004;2022-08-02T09:12:20;4.20;;;3.70;;
1178;SDS011;578;48.408;10.004;2022-08-02T09:14:48;5.13;;;3.93;;
1178;SDS011;578;48.408;10.004;2022-08-02T09:17:17;4.70;;;4.33;;
1178;SDS011;578;48.408;10.004;2022-08-02T09:19:45;4.63;;;4.23;;
1178;SDS011;578;48.408;10.004;2022-08-02T09:22:12;5.33;;;3.93;;
1178;SDS011;578;48.408;10.004;2022-08-02T09:24:40;3.73;;;3.43;;
1178;SDS011;578;48.408;10.004;2022-08-02T09:27:09;3.70;;;3.40;;
1178;SDS011;578;48.408;10.004;2022-08-02T09:29:37;4.20;;;3.43;;
1178;SDS011;578;48.408;10.004;2022-08-02T09:32:04;3.93;;;3.53;;
1178;SDS011;578;48.408;10.004;2022-08-02T09:34:47;3.90;;;3.37;;
1178;SDS011;578;48.408;10.004;2022-08-02T09:37:22;4.10;;;3.20;;
1178;SDS011;578;48.408;10.004;2022-08-02T09:39:50;3.83;;;3.13;;
1178;SDS011;578;48.408;10.004;2022-08-02T09:42:17;3.53;;;2.50;;
1178;SDS011;578;48.408;10.004;2022-08-02T09:44:54;3.60;;;2.73;;
1178;SDS011;578;48.408;10.004;2022-08-02T09:47:22;3.43;;;2.70;;
1178;SDS011;578;48.408;10.004;2022-08-02T09:49:50;2.53;;;2.30;;
1178;SDS011;578;48.408;10.004;2022-08-02T09:52:23;3.00;;;2.30;;
1178;SDS011;578;48.408;10.004;2022-08-02T09:54:52;3.07;;;2.80;;
1178;SDS011;578;48.408;10.004;2022-08-02T09:57:26;3.37;;;3.07;;
1178;SDS011;578;48.408;10.004;2022-08-02T09:59:53;3.70;;;3.40;;
1178;SDS011;578;48.408;10.004;2022-08-02T10:02:21;3.40;;;2.80;;
1178;SDS011;578;48.408;10.004;2022-08-02T10:04:48;3.73;;;2.67;;
1178;SDS011;578;48.408;10.004;2022-08-02T10:07:16;5.90;;;4.43;;
1178;SDS011;578;48.408;10.004;2022-08-02T10:09:43;3.43;;;3.13;;
1178;SDS011;578;48.408;10.004;2022-08-02T10:12:11;5.93;;;2.37;;
1178;SDS011;578;48.408;10.004;2022-08-02T10:14:38;2.90;;;2.57;;
1178;SDS011;578;48.408;10.004;2022-08-02T10:17:05;3.07;;;2.60;;
1178;SDS011;578;48.408;10.004;2022-08-02T10:19:32;3.00;;;2.40;;
1178;SDS011;578;48.408;10.004;2022-08-02T10:22:00;3.80;;;2.93;;
1178;SDS011;578;48.408;10.004;2022-08-02T10:24:32;3.20;;;2.53;;
1178;SDS011;578;48.408;10.004;2022-08-02T10:27:03;2.73;;;2.20;;
1178;SDS011;578;48.408;10.004;2022-08-02T10:29:33;2.63;;;2.00;;
1178;SDS011;578;48.408;10.004;2022-08-02T10:32:01;4.17;;;2.70;;
1178;SDS011;578;48.408;10.004;2022-08-02T10:34:33;2.57;;;2.37;;
1178;SDS011;578;48.408;10.004;2022-08-02T10:37:03;2.40;;;2.00;;
1178;SDS011;578;48.408;10.004;2022-08-02T10:39:38;3.50;;;2.33;;
1178;SDS011;578;48.408;10.004;2022-08-02T10:42:05;2.50;;;2.27;;
1178;SDS011;578;48.408;10.004;2022-08-02T10:44:32;4.03;;;2.33;;
1178;SDS011;578;48.408;10.004;2022-08-02T10:47:19;2.33;;;2.13;;
1178;SDS011;578;48.408;10.004;2022-08-02T10:49:48;2.43;;;2.03;;
1178;SDS011;578;48.408;10.004;2022-08-02T10:52:17;2.80;;;2.23;;
1178;SDS011;578;48.408;10.004;2022-08-02T10:54:48;2.80;;;2.13;;
1178;SDS011;578;48.408;10.004;2022-08-02T10:57:19;2.40;;;2.00;;
1178;SDS011;578;48.408;10.004;2022-08-02T10:59:49;3.30;;;2.37;;
1178;SDS011;578;48.408;10.004;2022-08-02T11:02:34;2.80;;;2.40;;
1178;SDS011;578;48.408;10.004;2022-08-02T11:05:04;2.80;;;2.27;;
1178;SDS011;578;48.408;10.004;2022-08-02T11:07:34;2.50;;;2.30;;
1178;SDS011;578;48.408;10.004;2022-08-02T11:12:57;2.30;;;2.10;;
1178;SDS011;578;48.408;10.004;2022-08-02T11:15:27;4.60;;;2.13;;
1178;SDS011;578;48.408;10.004;2022-08-02T11:17:55;2.53;;;2.33;;
1178;SDS011;578;48.408;10.004;2022-08-02T11:20:24;2.60;;;2.40;;
1178;SDS011;578;48.408;10.004;2022-08-02T11:22:52;2.20;;;2.00;;
1178;SDS011;578;48.408;10.004;2022-08-02T11:25:31;2.10;;;1.73;;
1178;SDS011;578;48.408;10.004;2022-08-02T11:27:59;2.20;;;2.00;;
1178;SDS011;578;48.408;10.004;2022-08-02T11:30:34;2.27;;;2.07;;
1178;SDS011;578;48.408;10.004;2022-08-02T11:33:01;2.80;;;1.90;;
1178;SDS011;578;48.408;10.004;2022-08-02T11:35:30;3.97;;;2.57;;
1178;SDS011;578;48.408;10.004;2022-08-02T11:38:04;2.30;;;2.10;;
1178;SDS011;578;48.408;10.004;2022-08-02T11:40:39;2.47;;;2.27;;
1178;SDS011;578;48.408;10.004;2022-08-02T11:43:14;3.00;;;2.33;;
1178;SDS011;578;48.408;10.004;2022-08-02T11:45:42;4.20;;;2.50;;
1178;SDS011;578;48.408;10.004;2022-08-02T11:48:09;2.57;;;2.00;;
1178;SDS011;578;48.408;10.004;2022-08-02T11:50:36;2.70;;;2.40;;
1178;SDS011;578;48.408;10.004;2022-08-02T11:53:11;4.10;;;2.00;;
1178;SDS011;578;48.408;10.004;2022-08-02T11:55:39;3.10;;;2.10;;
1178;SDS011;578;48.408;10.004;2022-08-02T11:58:06;2.67;;;2.20;;
1178;SDS011;578;48.408;10.004;2022-08-02T12:00:35;3.10;;;2.10;;
1178;SDS011;578;48.408;10.004;2022-08-02T12:03:02;3.10;;;2.80;;
1178;SDS011;578;48.408;10.004;2022-08-02T12:05:29;1.73;;;1.63;;
1178;SDS011;578;48.408;10.004;2022-08-02T12:07:56;2.43;;;1.80;;
1178;SDS011;578;48.408;10.004;2022-08-02T12:10:24;2.93;;;1.90;;
1178;SDS011;578;48.408;10.004;2022-08-02T12:12:52;2.20;;;1.80;;
1178;SDS011;578;48.408;10.004;2022-08-02T12:15:33;2.60;;;2.17;;
1178;SDS011;578;48.408;10.004;2022-08-02T12:18:02;2.67;;;2.47;;
1178;SDS011;578;48.408;10.004;2022-08-02T12:20:50;2.43;;;2.23;;
1178;SDS011;578;48.408;10.004;2022-08-02T12:23:17;2.63;;;2.10;;
1178;SDS011;578;48.408;10.004;2022-08-02T12:25:44;2.03;;;1.83;;
1178;SDS011;578;48.408;10.004;2022-08-02T12:28:18;1.97;;;1.77;;
1178;SDS011;578;48.408;10.004;2022-08-02T12:30:53;2.90;;;1.70;;
1178;SDS011;578;48.408;10.004;2022-08-02T12:33:22;2.77;;;2.30;;
1178;SDS011;578;48.408;10.004;2022-08-02T12:35:49;3.17;;;2.47;;
1178;SDS011;578;48.408;10.004;2022-08-02T12:38:16;2.77;;;2.27;;
1178;SDS011;578;48.408;10.004;2022-08-02T12:40:43;5.00;;;2.33;;
1178;SDS011;578;48.408;10.004;2022-08-02T12:43:15;2.27;;;1.97;;
1178;SDS011;578;48.408;10.004;2022-08-02T12:45:45;2.53;;;2.10;;
1178;SDS011;578;48.408;10.004;2022-08-02T12:48:14;2.60;;;2.30;;
1178;SDS011;578;48.408;10.004;2022-08-02T12:50:43;2.20;;;1.93;;
1178;SDS011;578;48.408;10.004;2022-08-02T12:53:11;3.00;;;2.17;;
1178;SDS011;578;48.408;10.004;2022-08-02T12:55:47;2.30;;;2.10;;
1178;SDS011;578;48.408;10.004;2022-08-02T12:58:15;2.70;;;2.50;;
1178;SDS011;578;48.408;10.004;2022-08-02T13:00:50;2.77;;;2.37;;
1178;SDS011;578;48.408;10.004;2022-08-02T13:03:18;2.47;;;2.27;;
1178;SDS011;578;48.408;10.004;2022-08-02T13:05:45;2.50;;;2.30;;
1178;SDS011;578;48.408;10.004;2022-08-02T13:08:12;2.67;;;2.47;;
1178;SDS011;578;48.408;10.004;2022-08-02T13:10:39;2.70;;;2.40;;
1178;SDS011;578;48.408;10.004;2022-08-02T13:13:06;2.10;;;1.80;;
1178;SDS011;578;48.408;10.004;2022-08-02T13:15:34;3.00;;;2.10;;
1178;SDS011;578;48.408;10.004;2022-08-02T13:18:00;2.10;;;1.90;;
1178;SDS011;578;48.408;10.004;2022-08-02T13:20:28;2.87;;;2.10;;
1178;SDS011;578;48.408;10.004;2022-08-02T13:22:55;2.50;;;2.30;;
1178;SDS011;578;48.408;10.004;2022-08-02T13:25:22;3.37;;;2.30;;
1178;SDS011;578;48.408;10.004;2022-08-02T13:27:48;2.00;;;1.80;;
1178;SDS011;578;48.408;10.004;2022-08-02T13:30:15;4.10;;;2.07;;
1178;SDS011;578;48.408;10.004;2022-08-02T13:32:44;2.50;;;2.07;;
1178;SDS011;578;48.408;10.004;2022-08-02T13:35:11;2.83;;;1.93;;
1178;SDS011;578;48.408;10.004;2022-08-02T13:37:39;2.30;;;2.10;;
1178;SDS011;578;48.408;10.004;2022-08-02T13:40:06;2.60;;;2.30;;
1178;SDS011;578;48.408;10.004;2022-08-02T13:42:34;2.20;;;2.00;;
1178;SDS011;578;48.408;10.004;2022-08-02T13:45:01;2.00;;;1.80;;
1178;SDS011;578;48.408;10.004;2022-08-02T13:47:28;2.03;;;1.83;;
1178;SDS011;578;48.408;10.004;2022-08-02T13:49:56;3.97;;;1.83;;
1178;SDS011;578;48.408;10.004;2022-08-02T13:52:22;4.60;;;3.10;;
1178;SDS011;578;48.408;10.004;2022-08-02T13:54:49;3.10;;;2.07;;
1178;SDS011;578;48.408;10.004;2022-08-02T13:57:16;1.93;;;1.70;;
1178;SDS011;578;48.408;10.004;2022-08-02T13:59:42;1.90;;;1.70;;
1178;SDS011;578;48.408;10.004;2022-08-02T14:02:09;2.23;;;1.80;;
1178;SDS011;578;48.408;10.004;2022-08-02T14:04:36;2.13;;;1.93;;
1178;SDS011;578;48.408;10.004;2022-08-02T14:07:04;2.63;;;2.43;;
1178;SDS011;578;48.408;10.004;2022-08-02T14:09:31;1.90;;;1.70;;
1178;SDS011;578;48.408;10.004;2022-08-02T14:11:59;2.20;;;2.00;;
1178;SDS011;578;48.408;10.004;2022-08-02T14:14:26;3.90;;;2.30;;
1178;SDS011;578;48.408;10.004;2022-08-02T14:16:53;2.43;;;2.23;;
1178;SDS011;578;48.408;10.004;2022-08-02T14:19:20;2.10;;;1.90;;
1178;SDS011;578;48.408;10.004;2022-08-02T14:21:47;2.30;;;2.10;;
1178;SDS011;578;48.408;10.004;2022-08-02T14:24:15;2.53;;;2.33;;
1178;SDS011;578;48.408;10.004;2022-08-02T14:26:42;2.00;;;1.80;;
1178;SDS011;578;48.408;10.004;2022-08-02T14:29:09;5.13;;;2.17;;
1178;SDS011;578;48.408;10.004;2022-08-02T14:31:36;2.37;;;2.07;;
1178;SDS011;578;48.408;10.004;2022-08-02T14:34:03;2.47;;;2.27;;
1178;SDS011;578;48.408;10.004;2022-08-02T14:36:29;3.27;;;2.40;;
1178;SDS011;578;48.408;10.004;2022-08-02T14:38:56;2.43;;;2.23;;
1178;SDS011;578;48.408;10.004;2022-08-02T14:41:24;2.10;;;1.90;;
1178;SDS011;578;48.408;10.004;2022-08-02T14:43:51;5.47;;;2.50;;
1178;SDS011;578;48.408;10.004;2022-08-02T14:46:31;2.50;;;1.90;;
1178;SDS011;578;48.408;10.004;2022-08-02T14:48:58;2.17;;;1.90;;
1178;SDS011;578;48.408;10.004;2022-08-02T14:51:27;2.60;;;2.17;;
1178;SDS011;578;48.408;10.004;2022-08-02T14:53:54;2.23;;;1.90;;
1178;SDS011;578;48.408;10.004;2022-08-02T14:56:21;2.30;;;2.10;;
1178;SDS011;578;48.408;10.004;2022-08-02T14:58:49;3.20;;;1.93;;
1178;SDS011;578;48.408;10.004;2022-08-02T15:01:16;4.10;;;2.27;;
1178;SDS011;578;48.408;10.004;2022-08-02T15:03:43;3.10;;;2.00;;
1178;SDS011;578;48.408;10.004;2022-08-02T15:06:10;3.30;;;2.17;;
1178;SDS011;578;48.408;10.004;2022-08-02T15:08:36;2.23;;;2.00;;
1178;SDS011;578;48.408;10.004;2022-08-02T15:11:03;3.20;;;2.07;;
1178;SDS011;578;48.408;10.004;2022-08-02T15:13:30;3.20;;;2.20;;
1178;SDS011;578;48.408;10.004;2022-08-02T15:15:58;2.20;;;2.00;;
1178;SDS011;578;48.408;10.004;2022-08-02T15:18:25;3.43;;;1.80;;